createdAt,value
2024-04-14T00:00:00.958Z,17.34
2024-04-14T00:02:01.282Z,17.42
2024-04-14T00:04:01.706Z,17.42
2024-04-14T00:06:02.051Z,17.38
2024-04-14T00:08:02.325Z,17.30
2024-04-14T00:10:02.859Z,17.19
2024-04-14T00:12:03.149Z,17.01
2024-04-14T00:14:03.478Z,16.91
2024-04-14T00:16:03.824Z,16.81
2024-04-14T00:18:04.269Z,16.64
2024-04-14T00:20:05.081Z,16.35
2024-04-14T00:22:05.637Z,16.12
2024-04-14T00:24:05.945Z,16.01
2024-04-14T00:26:06.208Z,15.90
2024-04-14T00:28:06.756Z,15.83
2024-04-14T00:30:07.019Z,15.75
2024-04-14T00:32:07.332Z,15.70
2024-04-14T00:34:07.725Z,15.62
2024-04-14T00:36:07.999Z,15.57
2024-04-14T00:38:08.306Z,15.49
2024-04-14T00:40:08.607Z,15.44
2024-04-14T00:42:09.549Z,15.40
2024-04-14T00:44:09.827Z,15.35
2024-04-14T00:46:10.121Z,15.28
2024-04-14T00:48:10.473Z,15.28
2024-04-14T00:50:10.793Z,15.31
2024-04-14T00:52:11.101Z,15.36
2024-04-14T00:54:11.605Z,15.43
2024-04-14T00:56:11.902Z,15.46
2024-04-14T00:58:12.202Z,15.51
2024-04-14T01:00:12.476Z,15.51
2024-04-14T01:02:15.669Z,15.52
2024-04-14T01:04:16.061Z,15.52
2024-04-14T01:06:16.389Z,15.44
2024-04-14T01:08:16.680Z,15.46
2024-04-14T01:10:16.998Z,15.42
2024-04-14T01:12:17.299Z,15.39
2024-04-14T01:14:17.579Z,15.36
2024-04-14T01:17:11.090Z,15.35
2024-04-14T01:19:11.379Z,15.37
2024-04-14T01:21:11.687Z,15.31
2024-04-14T01:23:11.958Z,15.22
2024-04-14T01:25:12.227Z,15.17
2024-04-14T01:27:15.981Z,15.11
2024-04-14T01:29:16.561Z,15.06
2024-04-14T01:31:16.833Z,15.02
2024-04-14T01:33:17.110Z,14.94
2024-04-14T01:35:17.419Z,14.88
2024-04-14T01:37:17.703Z,14.86
2024-04-14T01:39:17.996Z,14.84
2024-04-14T01:41:18.260Z,14.79
2024-04-14T01:43:18.565Z,14.72
2024-04-14T01:45:18.863Z,14.69
2024-04-14T01:47:19.189Z,14.63
2024-04-14T01:49:19.533Z,14.58
2024-04-14T01:51:19.836Z,14.54
2024-04-14T01:53:20.126Z,14.50
2024-04-14T01:55:20.427Z,14.45
2024-04-14T01:57:20.716Z,14.37
2024-04-14T01:59:20.981Z,14.33
2024-04-14T02:01:21.368Z,14.29
2024-04-14T02:03:21.774Z,14.26
2024-04-14T02:05:22.046Z,14.28
2024-04-14T02:07:22.401Z,14.17
2024-04-14T02:09:22.762Z,14.14
2024-04-14T02:11:23.098Z,14.10
2024-04-14T02:13:23.343Z,14.07
2024-04-14T02:15:23.676Z,14.05
2024-04-14T02:17:23.938Z,13.97
2024-04-14T02:19:24.235Z,13.86
2024-04-14T02:21:24.571Z,13.72
2024-04-14T02:23:24.839Z,13.67
2024-04-14T02:25:25.153Z,13.59
2024-04-14T02:27:25.419Z,13.57
2024-04-14T02:29:25.766Z,13.57
2024-04-14T02:31:26.082Z,13.59
2024-04-14T02:33:26.592Z,13.62
2024-04-14T02:35:26.868Z,13.62
2024-04-14T02:37:27.125Z,13.67
2024-04-14T02:39:27.478Z,13.63
2024-04-14T02:41:32.576Z,13.60
2024-04-14T02:43:32.957Z,13.59
2024-04-14T02:45:33.228Z,13.59
2024-04-14T02:47:33.645Z,13.56
2024-04-14T02:49:33.994Z,13.56
2024-04-14T02:51:34.326Z,13.52
2024-04-14T02:53:34.557Z,13.52
2024-04-14T02:55:34.895Z,13.56
2024-04-14T02:57:35.285Z,13.53
2024-04-14T02:59:35.599Z,13.54
2024-04-14T03:01:35.911Z,13.52
2024-04-14T03:03:36.238Z,13.49
2024-04-14T03:05:36.505Z,13.44
2024-04-14T03:07:36.842Z,13.46
2024-04-14T03:09:37.141Z,13.46
2024-04-14T03:11:37.475Z,13.46
2024-04-14T03:13:37.710Z,13.41
2024-04-14T03:15:38.018Z,13.39
2024-04-14T03:17:38.337Z,13.41
2024-04-14T03:19:38.630Z,13.39
2024-04-14T03:21:38.942Z,13.39
2024-04-14T03:23:39.188Z,13.41
2024-04-14T03:25:39.498Z,13.37
2024-04-14T03:27:39.826Z,13.42
2024-04-14T03:29:40.115Z,13.46
2024-04-14T03:31:40.439Z,13.49
2024-04-14T03:33:40.900Z,13.46
2024-04-14T03:35:41.210Z,13.50
2024-04-14T03:37:41.514Z,13.52
2024-04-14T03:39:41.810Z,13.49
2024-04-14T03:41:42.103Z,13.49
2024-04-14T03:43:42.350Z,13.49
2024-04-14T03:45:42.649Z,13.46
2024-04-14T03:47:43.020Z,13.50
2024-04-14T03:49:43.299Z,13.49
2024-04-14T03:51:43.659Z,13.49
2024-04-14T03:53:43.963Z,13.50
2024-04-14T03:55:44.247Z,13.47
2024-04-14T03:57:44.569Z,13.44
2024-04-14T03:59:44.836Z,13.39
2024-04-14T04:01:45.210Z,13.31
2024-04-14T04:03:45.522Z,13.23
2024-04-14T04:05:45.841Z,13.19
2024-04-14T04:07:46.133Z,13.16
2024-04-14T04:09:46.411Z,13.18
2024-04-14T04:11:46.685Z,13.18
2024-04-14T04:13:46.959Z,13.18
2024-04-14T04:15:47.263Z,13.20
2024-04-14T04:17:47.644Z,13.19
2024-04-14T04:19:47.921Z,13.19
2024-04-14T04:21:48.299Z,13.20
2024-04-14T04:23:48.590Z,13.20
2024-04-14T04:25:48.844Z,13.23
2024-04-14T04:27:49.202Z,13.25
2024-04-14T04:29:49.489Z,13.27
2024-04-14T04:31:49.746Z,13.28
2024-04-14T04:33:50.172Z,13.30
2024-04-14T04:35:50.508Z,13.31
2024-04-14T04:37:50.752Z,13.28
2024-04-14T04:39:51.118Z,13.33
2024-04-14T04:41:51.400Z,13.31
2024-04-14T04:43:51.684Z,13.35
2024-04-14T04:45:52.063Z,13.35
2024-04-14T04:47:52.452Z,13.33
2024-04-14T04:49:52.768Z,13.35
2024-04-14T04:51:53.068Z,13.30
2024-04-14T04:53:53.328Z,13.30
2024-04-14T04:55:53.661Z,13.33
2024-04-14T04:57:53.985Z,13.27
2024-04-14T04:59:54.283Z,13.30
2024-04-14T05:01:54.561Z,13.31
2024-04-14T05:03:54.970Z,13.31
2024-04-14T05:05:55.235Z,13.35
2024-04-14T05:07:55.553Z,13.38
2024-04-14T05:09:55.860Z,13.38
2024-04-14T05:11:56.113Z,13.41
2024-04-14T05:13:56.393Z,13.44
2024-04-14T05:15:56.831Z,13.42
2024-04-14T05:17:57.188Z,13.42
2024-04-14T05:19:57.457Z,13.42
2024-04-14T05:21:57.874Z,13.46
2024-04-14T05:23:58.204Z,13.46
2024-04-14T05:25:58.516Z,13.47
2024-04-14T05:27:58.854Z,13.53
2024-04-14T05:29:59.189Z,13.57
2024-04-14T05:31:59.465Z,13.60
2024-04-14T05:33:59.757Z,13.65
2024-04-14T05:36:00.077Z,13.68
2024-04-14T05:38:00.356Z,13.72
2024-04-14T05:40:00.738Z,13.77
2024-04-14T05:42:01.006Z,13.83
2024-04-14T05:44:01.320Z,13.86
2024-04-14T05:46:01.767Z,13.92
2024-04-14T05:48:02.569Z,13.93
2024-04-14T05:50:03.029Z,13.97
2024-04-14T05:52:03.352Z,14.00
2024-04-14T05:54:03.621Z,14.04
2024-04-14T05:56:03.890Z,14.05
2024-04-14T05:58:04.215Z,14.10
2024-04-14T06:00:04.533Z,14.12
2024-04-14T06:02:04.808Z,14.14
2024-04-14T06:04:05.220Z,14.18
2024-04-14T06:06:05.565Z,14.23
2024-04-14T06:08:05.866Z,14.25
2024-04-14T06:10:06.159Z,14.32
2024-04-14T06:12:06.455Z,14.33
2024-04-14T06:14:06.707Z,14.40
2024-04-14T06:16:07.043Z,14.45
2024-04-14T06:18:07.387Z,14.58
2024-04-14T06:20:07.843Z,14.68
2024-04-14T06:22:08.133Z,14.73
2024-04-14T06:24:08.415Z,14.79
2024-04-14T06:26:08.733Z,14.86
2024-04-14T06:28:09.021Z,14.89
2024-04-14T06:30:09.304Z,14.92
2024-04-14T06:32:09.660Z,14.94
2024-04-14T06:34:10.004Z,14.97
2024-04-14T06:36:10.289Z,15.00
2024-04-14T06:38:10.609Z,15.04
2024-04-14T06:40:10.929Z,15.14
2024-04-14T06:42:14.151Z,15.21
2024-04-14T06:44:15.672Z,15.22
2024-04-14T06:46:15.988Z,15.25
2024-04-14T06:48:16.320Z,15.33
2024-04-14T06:50:16.566Z,15.43
2024-04-14T06:52:16.840Z,15.55
2024-04-14T06:54:17.168Z,15.68
2024-04-14T06:56:17.428Z,15.82
2024-04-14T06:58:17.705Z,16.02
2024-04-14T07:00:18.019Z,16.17
2024-04-14T07:02:23.233Z,16.33
2024-04-14T07:04:23.618Z,16.51
2024-04-14T07:06:23.959Z,16.66
2024-04-14T07:08:24.247Z,16.79
2024-04-14T07:10:24.561Z,16.91
2024-04-14T07:12:24.868Z,17.02
2024-04-14T07:14:25.401Z,17.08
2024-04-14T07:16:25.692Z,17.16
2024-04-14T07:18:26.134Z,17.23
2024-04-14T07:20:26.535Z,17.38
2024-04-14T07:22:26.862Z,17.45
2024-04-14T07:24:27.179Z,17.48
2024-04-14T07:26:27.469Z,17.45
2024-04-14T07:28:27.737Z,17.41
2024-04-14T07:30:28.050Z,17.45
2024-04-14T07:32:28.471Z,17.48
2024-04-14T07:34:28.784Z,17.51
2024-04-14T07:36:29.096Z,17.65
2024-04-14T07:38:29.413Z,17.74
2024-04-14T07:40:29.703Z,17.83
2024-04-14T07:42:30.011Z,17.92
2024-04-14T07:44:30.720Z,18.04
2024-04-14T07:46:32.670Z,18.15
2024-04-14T07:48:33.491Z,18.25
2024-04-14T07:50:35.706Z,18.40
2024-04-14T07:52:41.647Z,18.55
2024-04-14T07:54:42.692Z,18.71
2024-04-14T07:56:42.945Z,18.92
2024-04-14T07:58:43.230Z,19.12
2024-04-14T08:00:43.499Z,19.22
2024-04-14T08:02:43.950Z,19.33
2024-04-14T08:04:44.357Z,19.47
2024-04-14T08:06:44.664Z,19.56
2024-04-14T08:08:44.929Z,19.62
2024-04-14T08:10:45.212Z,19.66
2024-04-14T08:12:45.497Z,19.67
2024-04-14T08:14:45.784Z,19.81
2024-04-14T08:16:46.089Z,19.88
2024-04-14T08:18:46.402Z,19.84
2024-04-14T08:20:46.744Z,19.81
2024-04-14T08:22:47.021Z,19.71
2024-04-14T08:24:47.335Z,19.69
2024-04-14T08:26:47.666Z,19.66
2024-04-14T08:28:47.903Z,19.71
2024-04-14T08:30:48.230Z,19.69
2024-04-14T08:32:48.529Z,19.49
2024-04-14T08:34:48.796Z,19.66
2024-04-14T08:36:49.147Z,19.73
2024-04-14T08:38:49.409Z,19.85
2024-04-14T08:40:49.753Z,19.88
2024-04-14T08:42:50.076Z,19.99
2024-04-14T08:44:50.392Z,20.07
2024-04-14T08:46:50.808Z,20.22
2024-04-14T08:48:51.912Z,20.34
2024-04-14T08:50:52.443Z,20.37
2024-04-14T08:52:52.697Z,20.56
2024-04-14T08:54:53.035Z,20.67
2024-04-14T08:56:53.297Z,20.70
2024-04-14T08:58:53.582Z,20.82
2024-04-14T09:00:53.954Z,20.93
2024-04-14T09:02:54.298Z,21.15
2024-04-14T09:04:54.611Z,21.37
2024-04-14T09:06:54.984Z,21.21
2024-04-14T09:08:55.240Z,21.29
2024-04-14T09:10:55.565Z,21.36
2024-04-14T09:12:55.840Z,21.54
2024-04-14T09:14:56.099Z,21.64
2024-04-14T09:16:56.447Z,21.70
2024-04-14T09:18:56.826Z,21.75
2024-04-14T09:20:57.106Z,21.91
2024-04-14T09:22:57.441Z,22.18
2024-04-14T09:24:57.984Z,22.35
2024-04-14T09:26:58.291Z,22.41
2024-04-14T09:28:58.556Z,22.51
2024-04-14T09:30:58.981Z,22.59
2024-04-14T09:33:01.186Z,22.69
2024-04-14T09:35:06.200Z,22.75
2024-04-14T09:37:06.561Z,22.57
2024-04-14T09:39:06.991Z,22.57
2024-04-14T09:41:07.311Z,22.57
2024-04-14T09:43:07.570Z,22.65
2024-04-14T09:45:07.882Z,22.57
2024-04-14T09:47:08.168Z,22.70
2024-04-14T09:49:08.589Z,22.73
2024-04-14T09:51:08.907Z,22.84
2024-04-14T09:53:09.233Z,22.78
2024-04-14T09:55:09.536Z,22.72
2024-04-14T09:57:09.815Z,22.80
2024-04-14T09:59:10.099Z,22.91
2024-04-14T10:01:10.617Z,22.90
2024-04-14T10:03:10.975Z,22.98
2024-04-14T10:05:11.377Z,22.94
2024-04-14T10:07:11.661Z,22.85
2024-04-14T10:09:11.989Z,22.72
2024-04-14T10:11:12.368Z,22.83
2024-04-14T10:13:12.874Z,22.93
2024-04-14T10:15:13.132Z,23.06
2024-04-14T10:17:13.450Z,22.93
2024-04-14T10:19:13.753Z,23.02
2024-04-14T10:21:13.986Z,23.18
2024-04-14T10:23:14.293Z,23.06
2024-04-14T10:25:14.566Z,23.20
2024-04-14T10:27:14.905Z,23.31
2024-04-14T10:29:15.168Z,23.50
2024-04-14T10:31:15.494Z,23.46
2024-04-14T10:33:15.753Z,23.34
2024-04-14T10:35:16.095Z,23.44
2024-04-14T10:37:16.367Z,23.54
2024-04-14T10:39:16.599Z,23.73
2024-04-14T10:41:16.961Z,23.77
2024-04-14T10:43:17.221Z,23.69
2024-04-14T10:45:17.542Z,23.62
2024-04-14T10:47:17.922Z,23.55
2024-04-14T10:49:18.297Z,23.54
2024-04-14T10:51:18.651Z,23.66
2024-04-14T10:53:18.929Z,24.02
2024-04-14T10:55:19.307Z,23.95
2024-04-14T10:57:19.642Z,23.92
2024-04-14T10:59:19.919Z,23.81
2024-04-14T11:01:20.357Z,23.92
2024-04-14T11:03:25.408Z,24.05
2024-04-14T11:05:25.682Z,24.16
2024-04-14T11:07:25.982Z,24.05
2024-04-14T11:09:26.245Z,23.96
2024-04-14T11:11:26.569Z,24.33
2024-04-14T11:13:26.849Z,24.69
2024-04-14T11:15:27.242Z,24.99
2024-04-14T11:17:27.595Z,24.88
2024-04-14T11:19:27.832Z,24.54
2024-04-14T11:21:28.158Z,24.23
2024-04-14T11:23:28.436Z,24.08
2024-04-14T11:25:28.725Z,24.06
2024-04-14T11:27:32.390Z,24.29
2024-04-14T11:29:34.245Z,24.85
2024-04-14T11:31:34.586Z,25.11
2024-04-14T11:33:35.810Z,24.89
2024-04-14T11:35:36.165Z,24.70
2024-04-14T11:37:36.520Z,24.68
2024-04-14T11:39:36.859Z,24.77
2024-04-14T11:41:37.121Z,24.69
2024-04-14T11:43:37.766Z,24.81
2024-04-14T11:45:38.048Z,24.70
2024-04-14T11:47:38.552Z,25.01
2024-04-14T11:49:38.881Z,25.04
2024-04-14T11:51:39.300Z,24.96
2024-04-14T11:53:39.666Z,24.93
2024-04-14T11:55:39.958Z,24.99
2024-04-14T11:57:40.331Z,24.96
2024-04-14T11:59:40.598Z,25.04
2024-04-14T12:01:41.022Z,25.07
2024-04-14T12:03:46.159Z,25.10
2024-04-14T12:05:51.313Z,25.21
2024-04-14T12:07:51.603Z,25.17
2024-04-14T12:09:52.192Z,25.16
2024-04-14T12:11:53.248Z,25.07
2024-04-14T12:13:53.613Z,24.91
2024-04-14T12:15:54.034Z,24.95
2024-04-14T12:17:55.247Z,24.84
2024-04-14T12:19:55.569Z,24.77
2024-04-14T12:21:55.851Z,24.68
2024-04-14T12:23:56.155Z,24.43
2024-04-14T12:25:56.487Z,24.30
2024-04-14T12:27:56.847Z,24.39
2024-04-14T12:29:57.148Z,24.53
2024-04-14T12:31:57.417Z,24.89
2024-04-14T12:33:57.837Z,25.06
2024-04-14T12:35:58.155Z,25.21
2024-04-14T12:37:58.466Z,25.50
2024-04-14T12:39:58.762Z,25.96
2024-04-14T12:41:59.087Z,26.07
2024-04-14T12:43:59.349Z,25.72
2024-04-14T12:45:59.722Z,25.63
2024-04-14T12:48:00.022Z,25.62
2024-04-14T12:50:00.430Z,25.62
2024-04-14T12:52:00.719Z,25.47
2024-04-14T12:54:01.598Z,25.23
2024-04-14T12:56:01.949Z,25.17
2024-04-14T12:58:02.383Z,25.31
2024-04-14T13:00:03.177Z,25.16
2024-04-14T13:02:03.480Z,25.11
2024-04-14T13:04:03.802Z,25.01
2024-04-14T13:06:04.088Z,25.18
2024-04-14T13:08:04.374Z,25.36
2024-04-14T13:10:04.832Z,25.47
2024-04-14T13:12:07.015Z,25.48
2024-04-14T13:14:08.694Z,25.41
2024-04-14T13:16:09.054Z,25.41
2024-04-14T13:18:09.327Z,25.25
2024-04-14T13:20:09.602Z,24.89
2024-04-14T13:22:09.930Z,24.78
2024-04-14T13:24:10.279Z,24.81
2024-04-14T13:26:10.572Z,24.88
2024-04-14T13:28:10.974Z,24.95
2024-04-14T13:30:11.243Z,25.11
2024-04-14T13:32:11.545Z,25.07
2024-04-14T13:34:11.820Z,25.23
2024-04-14T13:36:12.111Z,25.26
2024-04-14T13:38:12.397Z,25.21
2024-04-14T13:40:12.727Z,25.13
2024-04-14T13:42:12.982Z,25.11
2024-04-14T13:44:13.293Z,25.08
2024-04-14T13:46:13.740Z,25.03
2024-04-14T13:48:14.056Z,25.01
2024-04-14T13:50:14.357Z,25.14
2024-04-14T13:52:14.712Z,25.29
2024-04-14T13:54:15.107Z,25.38
2024-04-14T13:56:15.414Z,25.41
2024-04-14T13:58:15.688Z,25.50
2024-04-14T14:00:15.969Z,25.65
2024-04-14T14:02:16.377Z,25.95
2024-04-14T14:04:16.720Z,25.84
2024-04-14T14:06:17.020Z,25.87
2024-04-14T14:08:17.356Z,26.07
2024-04-14T14:10:17.657Z,26.22
2024-04-14T14:12:18.057Z,26.31
2024-04-14T14:14:18.350Z,26.19
2024-04-14T14:16:18.904Z,26.23
2024-04-14T14:18:19.322Z,26.21
2024-04-14T14:20:19.626Z,26.31
2024-04-14T14:22:19.880Z,26.25
2024-04-14T14:24:20.209Z,26.40
2024-04-14T14:26:20.475Z,26.44
2024-04-14T14:28:20.769Z,26.51
2024-04-14T14:30:21.012Z,26.45
2024-04-14T14:32:21.369Z,26.36
2024-04-14T14:34:21.701Z,26.51
2024-04-14T14:36:22.063Z,26.58
2024-04-14T14:38:30.949Z,26.44
2024-04-14T14:40:27.519Z,26.21
2024-04-14T14:42:27.803Z,25.83
2024-04-14T14:44:28.129Z,25.66
2024-04-14T14:46:28.421Z,25.65
2024-04-14T14:48:28.879Z,25.68
2024-04-14T14:50:29.228Z,25.63
2024-04-14T14:52:29.509Z,25.91
2024-04-14T14:54:29.774Z,26.00
2024-04-14T14:56:30.072Z,26.05
2024-04-14T14:58:30.327Z,26.13
2024-04-14T15:00:30.616Z,26.03
2024-04-14T15:02:30.926Z,26.13
2024-04-14T15:04:31.510Z,26.23
2024-04-14T15:06:36.534Z,26.34
2024-04-14T15:08:36.770Z,26.55
2024-04-14T15:10:37.115Z,26.43
2024-04-14T15:12:37.450Z,26.53
2024-04-14T15:14:37.691Z,26.77
2024-04-14T15:16:38.016Z,26.89
2024-04-14T15:18:38.335Z,27.03
2024-04-14T15:20:38.615Z,27.11
2024-04-14T15:22:38.876Z,27.21
2024-04-14T15:24:39.150Z,27.10
2024-04-14T15:26:39.435Z,26.83
2024-04-14T15:28:39.868Z,26.93
2024-04-14T15:30:40.233Z,26.71
2024-04-14T15:32:40.597Z,26.74
2024-04-14T15:34:40.936Z,26.31
2024-04-14T15:36:41.284Z,25.98
2024-04-14T15:38:41.543Z,25.72
2024-04-14T15:40:41.837Z,25.46
2024-04-14T15:42:42.220Z,25.16
2024-04-14T15:44:42.581Z,25.01
2024-04-14T15:46:42.947Z,24.96
2024-04-14T15:48:43.246Z,24.61
2024-04-14T15:50:43.553Z,24.53
2024-04-14T15:52:43.804Z,24.48
2024-04-14T15:54:44.151Z,24.36
2024-04-14T15:56:46.382Z,24.26
2024-04-14T15:58:46.661Z,24.10
2024-04-14T16:00:47.084Z,24.16
2024-04-14T16:02:47.651Z,24.06
2024-04-14T16:04:50.941Z,24.01
2024-04-14T16:06:57.489Z,23.98
2024-04-14T16:08:57.899Z,23.84
2024-04-14T16:10:58.233Z,23.80
2024-04-14T16:12:58.593Z,23.77
2024-04-14T16:14:58.959Z,23.63
2024-04-14T16:16:59.258Z,23.46
2024-04-14T16:18:59.624Z,23.47
2024-04-14T16:20:59.898Z,23.40
2024-04-14T16:23:00.211Z,23.32
2024-04-14T16:25:00.508Z,23.31
2024-04-14T16:27:00.833Z,23.23
2024-04-14T16:29:01.175Z,23.23
2024-04-14T16:31:01.565Z,23.21
2024-04-14T16:33:44.670Z,22.98
2024-04-14T16:35:45.107Z,22.73
2024-04-14T16:37:45.530Z,22.62
2024-04-14T16:39:45.871Z,22.55
2024-04-14T16:41:46.137Z,22.48
2024-04-14T16:43:46.613Z,22.47
2024-04-14T16:45:46.913Z,22.28
2024-04-14T16:47:47.328Z,22.18
2024-04-14T16:49:47.765Z,22.14
2024-04-14T16:51:48.088Z,22.18
2024-04-14T16:53:48.658Z,22.23
2024-04-14T16:55:49.504Z,22.29
2024-04-14T16:57:49.990Z,22.32
2024-04-14T16:59:50.428Z,22.29
2024-04-14T17:01:50.996Z,22.36
2024-04-14T17:03:51.639Z,22.48
2024-04-14T17:05:52.202Z,22.50
2024-04-14T17:07:52.456Z,22.47
2024-04-14T17:09:52.767Z,22.43
2024-04-14T17:11:53.021Z,22.38
2024-04-14T17:13:53.361Z,22.25
2024-04-14T17:15:53.713Z,22.14
2024-04-14T17:17:53.993Z,22.02
2024-04-14T17:19:54.316Z,21.88
2024-04-14T17:21:55.634Z,21.61
2024-04-14T17:23:55.946Z,21.54
2024-04-14T17:25:57.213Z,21.50
2024-04-14T17:27:57.662Z,21.54
2024-04-14T17:29:58.035Z,21.60
2024-04-14T17:31:58.468Z,21.55
2024-04-14T17:33:58.895Z,21.33
2024-04-14T17:35:59.207Z,21.18
2024-04-14T17:37:59.535Z,21.03
2024-04-14T17:40:01.125Z,20.95
2024-04-14T17:42:02.855Z,20.88
2024-04-14T17:44:03.385Z,20.75
2024-04-14T17:46:03.701Z,20.56
2024-04-14T17:48:04.077Z,20.18
2024-04-14T17:50:04.504Z,20.00
2024-04-14T17:52:04.823Z,19.92
2024-04-14T17:54:05.059Z,19.88
2024-04-14T17:56:05.464Z,19.79
2024-04-14T17:58:05.753Z,19.62
2024-04-14T18:00:06.305Z,19.55
2024-04-14T18:02:06.602Z,19.51
2024-04-14T18:04:06.886Z,19.45
2024-04-14T18:06:07.156Z,19.39
2024-04-14T18:08:07.547Z,19.31
2024-04-14T18:10:08.084Z,19.22
2024-04-14T18:12:08.387Z,19.12
2024-04-14T18:14:10.330Z,19.00
2024-04-14T18:16:12.333Z,18.96
2024-04-14T18:18:12.650Z,18.95
2024-04-14T18:20:12.967Z,18.86
2024-04-14T18:22:13.280Z,18.84
2024-04-14T18:24:13.559Z,18.78
2024-04-14T18:26:13.876Z,18.77
2024-04-14T18:28:14.234Z,18.70
2024-04-14T18:30:14.480Z,18.66
2024-04-14T18:32:14.808Z,18.58
2024-04-14T18:34:15.088Z,18.49
2024-04-14T18:36:18.999Z,18.37
2024-04-14T18:38:19.816Z,18.34
2024-04-14T18:40:20.083Z,18.31
2024-04-14T18:42:20.371Z,18.33
2024-04-14T18:44:20.651Z,18.33
2024-04-14T18:46:20.995Z,18.28
2024-04-14T18:48:21.259Z,18.23
2024-04-14T18:50:21.511Z,18.18
2024-04-14T18:52:21.795Z,18.18
2024-04-14T18:54:22.063Z,18.16
2024-04-14T18:56:22.354Z,18.19
2024-04-14T18:58:22.664Z,18.16
2024-04-14T19:00:23.037Z,18.16
2024-04-14T19:02:23.335Z,18.11
2024-04-14T19:04:23.656Z,18.03
2024-04-14T19:06:23.980Z,17.94
2024-04-14T19:08:24.249Z,17.92
2024-04-14T19:10:24.559Z,17.86
2024-04-14T19:12:24.810Z,17.80
2024-04-14T19:14:25.117Z,17.78
2024-04-14T19:16:25.398Z,17.79
2024-04-14T19:18:25.794Z,17.76
2024-04-14T19:20:26.094Z,17.70
2024-04-14T19:22:26.759Z,17.64
2024-04-14T19:24:27.157Z,17.57
2024-04-14T19:26:27.381Z,17.49
2024-04-14T19:28:27.754Z,17.48
2024-04-14T19:30:28.044Z,17.46
2024-04-14T19:32:28.558Z,17.29
2024-04-14T19:34:28.885Z,17.02
2024-04-14T19:36:29.232Z,16.87
2024-04-14T19:38:29.482Z,16.84
2024-04-14T19:40:29.802Z,16.83
2024-04-14T19:42:30.076Z,16.83
2024-04-14T19:44:30.435Z,16.83
2024-04-14T19:46:30.718Z,16.90
2024-04-14T19:48:30.976Z,17.05
2024-04-14T19:50:31.347Z,17.19
2024-04-14T19:52:31.599Z,17.22
2024-04-14T19:54:31.899Z,17.26
2024-04-14T19:56:37.063Z,17.29
2024-04-14T19:58:37.410Z,17.30
2024-04-14T20:00:37.759Z,17.31
2024-04-14T20:02:38.117Z,17.38
2024-04-14T20:04:38.632Z,17.30
2024-04-14T20:06:39.003Z,17.26
2024-04-14T20:08:39.918Z,17.15
2024-04-14T20:10:40.347Z,17.11
2024-04-14T20:12:40.649Z,17.16
2024-04-14T20:14:40.966Z,17.20
2024-04-14T20:16:41.262Z,17.15
2024-04-14T20:18:41.624Z,17.04
2024-04-14T20:20:44.557Z,16.93
2024-04-14T20:22:46.291Z,16.93
2024-04-14T20:24:46.661Z,16.97
2024-04-14T20:26:47.043Z,17.01
2024-04-14T20:28:47.262Z,16.99
2024-04-14T20:30:47.579Z,17.02
2024-04-14T20:32:47.898Z,17.09
2024-04-14T20:34:48.147Z,17.06
2024-04-14T20:36:48.528Z,17.06
2024-04-14T20:38:49.037Z,17.06
2024-04-14T20:40:49.733Z,17.08
2024-04-14T20:42:50.015Z,17.06
2024-04-14T20:44:50.337Z,17.06
2024-04-14T20:46:50.626Z,17.05
2024-04-14T20:48:50.926Z,16.97
2024-04-14T20:50:51.204Z,16.94
2024-04-14T20:52:52.635Z,16.91
2024-04-14T20:54:52.909Z,16.90
2024-04-14T20:56:53.210Z,16.83
2024-04-14T20:58:53.500Z,16.81
2024-04-14T21:00:53.893Z,16.78
2024-04-14T21:02:54.213Z,16.72
2024-04-14T21:04:54.576Z,16.68
2024-04-14T21:06:54.890Z,16.56
2024-04-14T21:08:55.137Z,16.38
2024-04-14T21:10:55.433Z,16.15
2024-04-14T21:12:56.598Z,16.08
2024-04-14T21:14:56.898Z,15.95
2024-04-14T21:16:57.205Z,15.83
2024-04-14T21:18:57.604Z,15.80
2024-04-14T21:20:57.881Z,15.79
2024-04-14T21:22:58.161Z,15.72
2024-04-14T21:24:58.553Z,15.73
2024-04-14T21:26:58.841Z,15.72
2024-04-14T21:28:59.160Z,15.70
2024-04-14T21:30:59.483Z,15.62
2024-04-14T21:32:59.880Z,15.58
2024-04-14T21:35:00.158Z,15.54
2024-04-14T21:37:00.487Z,15.49
2024-04-14T21:39:00.866Z,15.51
2024-04-14T21:41:01.176Z,15.52
2024-04-14T21:43:01.477Z,15.55
2024-04-14T21:45:01.728Z,15.57
2024-04-14T21:47:01.998Z,15.58
2024-04-14T21:49:02.436Z,15.58
2024-04-14T21:51:02.733Z,15.57
2024-04-14T21:53:03.009Z,15.58
2024-04-14T21:55:03.304Z,15.52
2024-04-14T21:57:03.551Z,15.52
2024-04-14T21:59:03.859Z,15.57
2024-04-14T22:01:04.183Z,15.54
2024-04-14T22:03:04.502Z,15.52
2024-04-14T22:05:04.894Z,15.47
2024-04-14T22:07:05.258Z,15.52
2024-04-14T22:09:05.467Z,15.49
2024-04-14T22:11:06.046Z,15.43
2024-04-14T22:13:06.325Z,15.40
2024-04-14T22:15:06.595Z,15.33
2024-04-14T22:17:06.994Z,15.31
2024-04-14T22:19:07.274Z,15.25
2024-04-14T22:21:07.567Z,15.25
2024-04-14T22:23:07.843Z,15.19
2024-04-14T22:25:08.117Z,15.18
2024-04-14T22:27:08.539Z,15.15
2024-04-14T22:29:08.789Z,15.11
2024-04-14T22:31:09.152Z,15.09
2024-04-14T22:33:09.493Z,15.06
2024-04-14T22:35:09.849Z,15.00
2024-04-14T22:37:10.169Z,14.91
2024-04-14T22:39:10.447Z,14.84
2024-04-14T22:41:10.759Z,14.79
2024-04-14T22:43:11.084Z,14.78
2024-04-14T22:45:11.335Z,14.72
2024-04-14T22:47:11.633Z,14.69
2024-04-14T22:49:12.023Z,14.65
2024-04-14T22:51:12.267Z,14.68
2024-04-14T22:53:12.626Z,14.65
2024-04-14T22:55:13.108Z,14.58
2024-04-14T22:57:13.421Z,14.55
2024-04-14T22:59:13.716Z,14.58
2024-04-14T23:01:14.042Z,14.59
2024-04-14T23:03:14.440Z,14.55
2024-04-14T23:05:14.729Z,14.58
2024-04-14T23:07:15.033Z,14.59
2024-04-14T23:09:15.303Z,14.63
2024-04-14T23:11:15.613Z,14.65
2024-04-14T23:13:15.958Z,14.62
2024-04-14T23:15:16.274Z,14.65
2024-04-14T23:17:16.570Z,14.66
2024-04-14T23:19:16.842Z,14.63
2024-04-14T23:21:17.101Z,14.63
2024-04-14T23:23:17.383Z,14.68
2024-04-14T23:25:17.714Z,14.65
2024-04-14T23:27:18.000Z,14.66
2024-04-14T23:29:18.293Z,14.68
2024-04-14T23:31:18.541Z,14.70
2024-04-14T23:33:18.931Z,14.70
2024-04-14T23:35:19.294Z,14.77
2024-04-14T23:37:19.604Z,14.82
2024-04-14T23:39:19.858Z,14.86
2024-04-14T23:41:20.209Z,14.86
2024-04-14T23:43:20.463Z,14.85
2024-04-14T23:45:20.733Z,14.86
2024-04-14T23:47:21.294Z,14.82
2024-04-14T23:49:21.574Z,14.86
2024-04-14T23:51:21.815Z,14.81
2024-04-14T23:53:22.143Z,14.81
2024-04-14T23:55:22.451Z,14.82
2024-04-14T23:57:22.752Z,14.81
2024-04-14T23:59:23.048Z,14.77
